createdAt,value
2019-04-27T00:01:05.073Z,15.2
2019-04-27T00:02:11.493Z,15.5
2019-04-27T00:03:21.563Z,14.7
2019-04-27T00:04:31.213Z,16.200001
2019-04-27T00:05:41.637Z,15
2019-04-27T00:06:52.172Z,15
2019-04-27T00:07:42.186Z,15.2
2019-04-27T00:08:51.829Z,14.7
2019-04-27T00:10:01.636Z,14.7
2019-04-27T00:12:24.667Z,15
2019-04-27T00:13:21.311Z,15.2
2019-04-27T00:14:42.234Z,15.7
2019-04-27T00:15:52.136Z,16.1
2019-04-27T00:18:01.963Z,16.200001
2019-04-27T00:21:22.097Z,16.4
2019-04-27T00:22:21.513Z,17.6
2019-04-27T00:23:32.265Z,16.1
2019-04-27T00:24:42.222Z,16.9
2019-04-27T00:25:42.106Z,15.5
2019-04-27T00:28:11.186Z,15.7
2019-04-27T00:29:31.372Z,14.8
2019-04-27T00:33:11.767Z,15.2
2019-04-27T00:34:32.323Z,15.3
2019-04-27T00:35:42.116Z,14.6
2019-04-27T00:36:51.798Z,14.1
2019-04-27T00:41:32.365Z,14.4
2019-04-27T00:42:52.245Z,13.6
2019-04-27T00:44:01.741Z,13.7
2019-04-27T00:45:21.688Z,14.2
2019-04-27T00:46:31.393Z,14.7
2019-04-27T00:48:51.717Z,17
2019-04-27T00:50:11.736Z,17.299999
2019-04-27T00:51:31.580Z,17.700001
2019-04-27T00:52:51.488Z,16.9
2019-04-27T00:55:11.505Z,16.5
2019-04-27T00:56:32.267Z,15.3
2019-04-27T00:57:41.805Z,16.9
2019-04-27T00:59:01.844Z,14.7
2019-04-27T01:00:21.876Z,15.7
2019-04-27T01:01:31.588Z,14.4
2019-04-27T01:02:51.971Z,15.5
2019-04-27T01:04:11.833Z,15.4
2019-04-27T01:05:11.400Z,15
2019-04-27T01:06:31.949Z,15
2019-04-27T01:07:41.728Z,14.9
2019-04-27T01:09:01.730Z,15.4
2019-04-27T01:10:21.630Z,16.200001
2019-04-27T01:11:41.588Z,14.3
2019-04-27T01:13:51.997Z,15.7
2019-04-27T01:15:01.893Z,15.3
2019-04-27T01:16:57.934Z,15
2019-04-27T01:18:17.786Z,15
2019-04-27T01:19:27.351Z,15.4
2019-04-27T01:20:47.275Z,14.8
2019-04-27T01:22:07.055Z,15.3
2019-04-27T01:23:27.831Z,14.2
2019-04-27T01:24:47.612Z,15
2019-04-27T01:26:07.863Z,14
2019-04-27T01:27:17.251Z,14.2
2019-04-27T01:28:37.281Z,13.7
2019-04-27T01:31:17.709Z,13.1
2019-04-27T01:33:47.189Z,13.9
2019-04-27T01:36:17.370Z,14.1
2019-04-27T01:37:26.844Z,14.4
2019-04-27T01:40:08.100Z,16.1
2019-04-27T01:41:17.267Z,15.1
2019-04-27T01:42:27.761Z,14.8
2019-04-27T01:43:37.121Z,15.1
2019-04-27T01:44:57.825Z,15.3
2019-04-27T01:46:17.740Z,15.9
2019-04-27T01:47:27.256Z,15.3
2019-04-27T01:48:47.333Z,15.9
2019-04-27T01:50:06.998Z,15.2
2019-04-27T01:51:27.717Z,14
2019-04-27T01:52:36.851Z,14
2019-04-27T01:53:47.476Z,14.6
2019-04-27T01:54:57.841Z,13.7
2019-04-27T01:58:27.382Z,13.9
2019-04-27T01:59:47.203Z,14.5
2019-04-27T02:01:07.921Z,14
2019-04-27T02:02:27.567Z,15
2019-04-27T02:03:47.206Z,15.5
2019-04-27T02:05:06.967Z,14.4
2019-04-27T02:07:47.453Z,14.3
2019-04-27T02:08:57.853Z,14.4
2019-04-27T02:09:57.190Z,15
2019-04-27T02:11:16.905Z,14.2
2019-04-27T02:14:07.784Z,13.9
2019-04-27T02:15:27.603Z,14.4
2019-04-27T02:16:47.524Z,13.7
2019-04-27T02:18:07.620Z,13.8
2019-04-27T02:19:27.389Z,14.5
2019-04-27T02:20:47.362Z,13
2019-04-27T02:23:07.341Z,12.7
2019-04-27T02:24:16.938Z,12.7
2019-04-27T02:25:37.863Z,12.2
2019-04-27T02:26:37.932Z,12.1
2019-04-27T02:27:37.233Z,11.3
2019-04-27T02:28:47.911Z,12.2
2019-04-27T02:30:08.918Z,12.1
2019-04-27T02:32:07.760Z,11.9
2019-04-27T02:33:27.645Z,12.1
2019-04-27T02:34:47.876Z,11.2
2019-04-27T02:35:57.729Z,11.9
2019-04-27T02:38:27.911Z,10.5
2019-04-27T02:39:37.502Z,10.7
2019-04-27T02:40:57.316Z,10.5
2019-04-27T02:42:57.757Z,10.6
2019-04-27T02:44:17.695Z,11.4
2019-04-27T02:45:37.879Z,12
2019-04-27T02:46:47.500Z,9.6
2019-04-27T02:49:17.778Z,9.8
2019-04-27T02:50:27.196Z,10.2
2019-04-27T02:51:47.295Z,9.8
2019-04-27T02:54:27.619Z,9.7
2019-04-27T02:55:37.312Z,9.2
2019-04-27T02:56:56.952Z,9
2019-04-27T02:58:17.907Z,9
2019-04-27T02:59:27.499Z,8.3
2019-04-27T03:00:47.477Z,8.7
2019-04-27T03:02:08.103Z,7.3
2019-04-27T03:03:17.815Z,7.7
2019-04-27T03:04:17.899Z,7.7
2019-04-27T03:05:17.110Z,8.3
2019-04-27T03:06:37.533Z,8.1
2019-04-27T03:08:57.631Z,7.5
2019-04-27T03:10:17.439Z,8.2
2019-04-27T03:12:57.852Z,8.1
2019-04-27T03:14:07.371Z,8
2019-04-27T03:15:28.198Z,8.2
2019-04-27T03:16:18.116Z,8.3
2019-04-27T03:18:47.944Z,8.7
2019-04-27T03:20:07.747Z,8
2019-04-27T03:21:17.116Z,8.8
2019-04-27T03:23:17.580Z,8.8
2019-04-27T03:24:27.203Z,7.9
2019-04-27T03:26:57.573Z,7.8
2019-04-27T03:30:48.076Z,6.9
2019-04-27T03:31:48.878Z,7.2
2019-04-27T03:33:07.670Z,6.8
2019-04-27T03:34:27.463Z,7.3
2019-04-27T03:35:48.035Z,7
2019-04-27T03:37:07.730Z,7.5
2019-04-27T03:38:17.231Z,7.2
2019-04-27T03:39:37.232Z,6.8
2019-04-27T03:42:07.895Z,6.9
2019-04-27T03:43:27.808Z,6.3
2019-04-27T03:44:47.746Z,6.5
2019-04-27T03:46:07.671Z,6.5
2019-04-27T03:47:17.426Z,6.5
2019-04-27T03:49:47.761Z,5.7
2019-04-27T03:52:07.042Z,6
2019-04-27T03:53:27.226Z,6
2019-04-27T03:54:37.558Z,5.8
2019-04-27T03:55:57.485Z,5.9
2019-04-27T03:57:07.255Z,6.7
2019-04-27T03:58:28.014Z,5.2
2019-04-27T03:59:48.058Z,5.7
2019-04-27T04:01:07.918Z,5.3
2019-04-27T04:02:17.377Z,5.4
2019-04-27T04:04:47.990Z,5
2019-04-27T04:06:08.172Z,5.8
2019-04-27T04:07:07.377Z,5.1
2019-04-27T04:08:28.295Z,5.9
2019-04-27T04:09:37.725Z,5.2
2019-04-27T04:10:57.452Z,5
2019-04-27T04:12:07.245Z,5.2
2019-04-27T04:13:27.097Z,5
2019-04-27T04:14:47.104Z,4.6
2019-04-27T04:16:08.582Z,5.5
2019-04-27T04:17:28.033Z,5.9
2019-04-27T04:18:47.736Z,5.5
2019-04-27T04:19:58.444Z,5.6
2019-04-27T04:21:17.308Z,5.2
2019-04-27T04:22:17.749Z,5.1
2019-04-27T04:24:29.169Z,6
2019-04-27T04:26:47.663Z,5.4
2019-04-27T04:27:58.055Z,5.8
2019-04-27T04:29:07.738Z,5.2
2019-04-27T04:30:27.516Z,5
2019-04-27T04:31:47.591Z,5
2019-04-27T04:33:07.568Z,5.8
2019-04-27T04:34:27.443Z,5.3
2019-04-27T04:35:37.191Z,5.5
2019-04-27T04:36:57.972Z,5.2
2019-04-27T04:38:07.604Z,5.3
2019-04-27T04:39:17.281Z,4.9
2019-04-27T04:40:37.840Z,5
2019-04-27T04:44:27.687Z,5.9
2019-04-27T04:46:37.360Z,5.1
2019-04-27T04:47:57.407Z,5.2
2019-04-27T04:49:17.131Z,4.7
2019-04-27T04:51:48.025Z,5
2019-04-27T04:52:57.657Z,4.9
2019-04-27T04:53:57.126Z,4.2
2019-04-27T04:55:17.846Z,4.5
2019-04-27T04:56:16.955Z,5.4
2019-04-27T04:57:37.886Z,5.3
2019-04-27T04:58:57.823Z,4.6
2019-04-27T05:00:07.405Z,4.2
2019-04-27T05:03:26.931Z,4.4
2019-04-27T05:04:47.481Z,4.7
2019-04-27T05:06:57.355Z,4.3
2019-04-27T05:08:17.293Z,4
2019-04-27T05:09:27.739Z,3.7
2019-04-27T05:10:47.646Z,4
2019-04-27T05:13:07.437Z,3.9
2019-04-27T05:14:17.962Z,4
2019-04-27T05:15:37.746Z,3.8
2019-04-27T05:16:47.192Z,4.7
2019-04-27T05:17:57.007Z,4
2019-04-27T05:19:17.090Z,4
2019-04-27T05:20:37.878Z,3.5
2019-04-27T05:21:37.186Z,4.1
2019-04-27T05:22:57.646Z,3.3
2019-04-27T05:25:16.936Z,4
2019-04-27T05:26:37.939Z,3.8
2019-04-27T05:27:57.893Z,3.4
2019-04-27T05:28:57.246Z,3.8
2019-04-27T05:31:17.713Z,3.8
2019-04-27T05:32:37.739Z,3.7
2019-04-27T05:33:37.071Z,3.3
2019-04-27T05:34:47.778Z,3.8
2019-04-27T05:35:57.294Z,3.7
2019-04-27T05:37:21.199Z,3.6
2019-04-27T05:38:17.365Z,3.4
2019-04-27T05:39:27.938Z,3.9
2019-04-27T05:40:47.915Z,3.5
2019-04-27T05:41:57.820Z,3.4
2019-04-27T05:43:07.427Z,3.9
2019-04-27T05:46:56.996Z,3.7
2019-04-27T05:48:17.826Z,3.8
2019-04-27T05:49:40.923Z,3.3
2019-04-27T05:50:51.248Z,3.6
2019-04-27T05:52:57.822Z,3.4
2019-04-27T05:54:07.361Z,3.4
2019-04-27T05:56:27.028Z,3.5
2019-04-27T05:57:47.310Z,3.8
2019-04-27T06:03:37.757Z,3.4
2019-04-27T06:04:57.952Z,3
2019-04-27T06:06:17.773Z,3.9
2019-04-27T06:07:17.445Z,2.9
2019-04-27T06:09:37.445Z,3.4
2019-04-27T06:10:47.238Z,3.7
2019-04-27T06:12:07.273Z,3.2
2019-04-27T06:13:29.074Z,3.4
2019-04-27T06:14:37.613Z,4
2019-04-27T06:15:48.361Z,3.3
2019-04-27T06:17:07.698Z,3.4
2019-04-27T06:18:27.597Z,3
2019-04-27T06:19:37.396Z,3.5
2019-04-27T06:21:07.848Z,2.9
2019-04-27T06:23:37.229Z,2.6
2019-04-27T06:25:08.190Z,3.2
2019-04-27T06:26:37.968Z,2.7
2019-04-27T06:27:37.948Z,3.7
2019-04-27T06:28:37.653Z,3.1
2019-04-27T06:29:57.386Z,2.9
2019-04-27T06:31:06.957Z,3.4
2019-04-27T06:32:27.613Z,3
2019-04-27T06:34:47.040Z,2.9
2019-04-27T06:36:07.971Z,3.5
2019-04-27T06:37:27.191Z,3.4
2019-04-27T06:39:57.667Z,3.2
2019-04-27T06:42:19.080Z,3.6
2019-04-27T06:43:17.176Z,2.9
2019-04-27T06:44:17.782Z,3
2019-04-27T06:45:36.976Z,2.9
2019-04-27T06:46:57.402Z,3.1
2019-04-27T06:48:07.615Z,3.2
2019-04-27T06:49:27.782Z,3
2019-04-27T06:50:47.394Z,3.4
2019-04-27T06:53:17.408Z,3.1
2019-04-27T06:54:27.019Z,3.4
2019-04-27T06:55:27.377Z,3.1
2019-04-27T06:56:26.999Z,3.6
2019-04-27T07:00:07.148Z,3.8
2019-04-27T07:01:17.352Z,3.4
2019-04-27T07:02:07.012Z,3.2
2019-04-27T07:03:27.135Z,4
2019-04-27T07:04:17.791Z,3.7
2019-04-27T07:05:37.059Z,3.1
2019-04-27T07:07:17.616Z,3.2
2019-04-27T07:08:57.985Z,3.4
2019-04-27T07:10:16.905Z,3.3
2019-04-27T07:11:27.567Z,3.8
2019-04-27T07:13:07.815Z,4.1
2019-04-27T07:14:27.649Z,4.4
2019-04-27T07:15:26.957Z,3.2
2019-04-27T07:17:07.275Z,4
2019-04-27T07:18:26.872Z,3.4
2019-04-27T07:19:47.873Z,3.8
2019-04-27T07:20:46.859Z,3.7
2019-04-27T07:23:37.145Z,3.7
2019-04-27T07:24:57.328Z,3.7
2019-04-27T07:27:27.104Z,3.4
2019-04-27T07:28:57.742Z,3.6
2019-04-27T07:30:07.189Z,3.8
2019-04-27T07:31:47.673Z,3.6
2019-04-27T07:33:16.883Z,3.9
2019-04-27T07:33:27.905Z,3.5
2019-04-27T07:35:57.303Z,3.9
2019-04-27T07:38:17.458Z,3.7
2019-04-27T07:39:17.334Z,4
2019-04-27T07:40:47.040Z,3.5
2019-04-27T07:41:56.870Z,3.7
2019-04-27T07:43:27.317Z,3.8
2019-04-27T07:45:27.803Z,3.5
2019-04-27T07:47:47.657Z,3.7
2019-04-27T07:50:17.751Z,4.1
2019-04-27T07:51:07.338Z,4.6
2019-04-27T07:52:38.510Z,4
2019-04-27T07:53:47.268Z,4
2019-04-27T07:54:57.050Z,4.2
2019-04-27T07:56:27.402Z,4
2019-04-27T07:57:38.233Z,3.6
2019-04-27T07:58:37.822Z,4.2
2019-04-27T08:01:07.615Z,4.1
2019-04-27T08:02:27.302Z,3.8
2019-04-27T08:03:37.341Z,4.3
2019-04-27T08:06:26.957Z,3.4
2019-04-27T08:07:37.314Z,4.1
2019-04-27T08:08:47.514Z,4.3
2019-04-27T08:10:17.547Z,4.7
2019-04-27T08:11:27.177Z,4.3
2019-04-27T08:12:36.861Z,4.7
2019-04-27T08:12:47.931Z,4.6
2019-04-27T08:14:06.960Z,4.7
2019-04-27T08:15:17.183Z,4.3
2019-04-27T08:16:36.915Z,4.9
2019-04-27T08:19:07.853Z,5.2
2019-04-27T08:20:37.321Z,4.7
2019-04-27T08:23:17.780Z,5.1
2019-04-27T08:24:27.748Z,5.1
2019-04-27T08:25:47.149Z,5.1
2019-04-27T08:27:07.752Z,5.6
2019-04-27T08:28:27.035Z,5.3
2019-04-27T08:29:57.024Z,4.8
2019-04-27T08:31:17.046Z,6
2019-04-27T08:32:57.616Z,4.9
2019-04-27T08:34:16.833Z,5.6
2019-04-27T08:34:27.893Z,5.9
2019-04-27T08:35:47.335Z,5.4
2019-04-27T08:37:16.970Z,5.6
2019-04-27T08:38:37.162Z,5.4
2019-04-27T08:40:07.540Z,5.6
2019-04-27T08:41:37.831Z,6
2019-04-27T08:43:07.311Z,6.3
2019-04-27T08:44:47.742Z,6.1
2019-04-27T08:46:16.968Z,6.3
2019-04-27T08:47:57.503Z,6.7
2019-04-27T08:49:27.483Z,6.3
2019-04-27T08:50:57.583Z,6.3
2019-04-27T08:51:56.992Z,6.6
2019-04-27T08:52:58.996Z,6.3
2019-04-27T08:53:48.314Z,6.2
2019-04-27T08:55:07.724Z,6.2
2019-04-27T08:56:07.520Z,6
2019-04-27T08:58:36.863Z,6.6
2019-04-27T08:58:47.908Z,6.7
2019-04-27T09:00:07.572Z,6.1
2019-04-27T09:02:57.630Z,6.4
2019-04-27T09:05:26.991Z,6.8
2019-04-27T09:06:47.644Z,7.3
2019-04-27T09:07:47.770Z,6.8
2019-04-27T09:08:57.469Z,7.4
2019-04-27T09:10:17.074Z,7.7
2019-04-27T09:11:37.468Z,6.9
2019-04-27T09:12:47.958Z,7.2
2019-04-27T09:13:47.007Z,7.6
2019-04-27T09:15:17.532Z,6.9
2019-04-27T09:16:16.877Z,7.3
2019-04-27T09:18:58.047Z,7.8
2019-04-27T09:21:27.649Z,8.4
2019-04-27T09:22:37.427Z,8
2019-04-27T09:24:27.370Z,7.7
2019-04-27T09:26:16.925Z,8.3
2019-04-27T09:27:27.113Z,8.7
2019-04-27T09:28:27.622Z,9.1
2019-04-27T09:29:27.896Z,8
2019-04-27T09:30:27.914Z,7.9
2019-04-27T09:34:11.021Z,8.2
2019-04-27T09:35:14.450Z,7.7
2019-04-27T09:36:54.913Z,8.3
2019-04-27T09:37:34.838Z,6.8
2019-04-27T09:38:24.602Z,7.1
2019-04-27T09:39:14.431Z,7.4
2019-04-27T09:40:15.432Z,8
2019-04-27T09:44:04.147Z,7.1
2019-04-27T09:44:54.130Z,7.7
2019-04-27T09:47:04.406Z,6.6
2019-04-27T09:48:24.043Z,6.7
2019-04-27T09:49:44.241Z,7
2019-04-27T09:50:44.731Z,7.3
2019-04-27T09:51:34.646Z,7.7
2019-04-27T09:52:53.896Z,7.1
2019-04-27T09:53:54.571Z,7.7
2019-04-27T09:55:14.580Z,7
2019-04-27T09:56:44.936Z,7.3
2019-04-27T09:57:34.731Z,7.8
2019-04-27T09:58:23.919Z,7.3
2019-04-27T10:00:25.842Z,6.9
2019-04-27T10:06:04.058Z,7.2
2019-04-27T10:09:04.864Z,7.4
2019-04-27T10:10:04.664Z,6.6
2019-04-27T10:13:44.734Z,7.5
2019-04-27T10:15:04.357Z,8.5
2019-04-27T10:18:14.461Z,7.7
2019-04-27T10:20:59.549Z,6.9
2019-04-27T10:22:14.161Z,7.7
2019-04-27T10:23:54.991Z,7.9
2019-04-27T10:27:24.105Z,7.3
2019-04-27T10:28:54.304Z,7.2
2019-04-27T10:30:04.106Z,6.9
2019-04-27T10:32:04.558Z,7.3
2019-04-27T10:35:24.338Z,7.9
2019-04-27T10:36:44.230Z,7.2
2019-04-27T10:38:24.003Z,7.1
2019-04-27T10:39:44.174Z,7
2019-04-27T10:41:24.321Z,7.5
2019-04-27T10:42:44.211Z,7.4
2019-04-27T10:44:24.888Z,7.5
2019-04-27T10:48:34.949Z,7.3
2019-04-27T10:51:24.496Z,8.3
2019-04-27T10:53:14.931Z,7.6
2019-04-27T10:55:14.399Z,8.6
2019-04-27T10:56:44.237Z,8.3
2019-04-27T10:59:44.433Z,7.8
2019-04-27T11:01:03.882Z,8.3
2019-04-27T11:04:14.155Z,7.9
2019-04-27T11:05:44.382Z,8
2019-04-27T11:07:24.327Z,7.4
2019-04-27T11:08:54.349Z,7.8
2019-04-27T11:11:44.568Z,8
2019-04-27T11:13:44.429Z,7.5
2019-04-27T11:16:54.109Z,7.3
2019-04-27T11:18:04.535Z,7
2019-04-27T11:19:14.778Z,6.5
2019-04-27T11:20:44.882Z,7.1
2019-04-27T11:23:24.284Z,5.9
2019-04-27T11:24:54.372Z,5
2019-04-27T11:26:24.556Z,4.8
2019-04-27T11:28:04.036Z,3.6
2019-04-27T11:31:34.610Z,4.3
2019-04-27T11:33:14.416Z,4
2019-04-27T11:34:43.991Z,4.2
2019-04-27T11:37:53.903Z,4.4
2019-04-27T11:40:54.860Z,4.4
2019-04-27T11:43:14.314Z,4.1
2019-04-27T11:44:34.255Z,3.6
2019-04-27T11:48:14.347Z,4.4
2019-04-27T11:51:34.815Z,4.4
2019-04-27T11:54:44.035Z,4.4
2019-04-27T11:56:25.366Z,4.6
2019-04-27T11:58:54.254Z,4.5
2019-04-27T12:00:05.786Z,5.5
2019-04-27T12:01:14.289Z,6
2019-04-27T12:02:24.043Z,5
2019-04-27T12:03:53.914Z,5.1
2019-04-27T12:05:14.310Z,5.8
2019-04-27T12:06:24.092Z,5.6
2019-04-27T12:08:04.391Z,5.3
2019-04-27T12:09:53.895Z,6
2019-04-27T12:10:53.985Z,5.1
2019-04-27T12:12:16.913Z,4
2019-04-27T12:13:24.177Z,3.9
2019-04-27T12:17:34.114Z,3.8
2019-04-27T12:19:04.719Z,2.9
2019-04-27T12:20:23.928Z,2.5
2019-04-27T12:21:44.571Z,3.5
2019-04-27T12:23:14.649Z,3
2019-04-27T12:25:54.554Z,3.4
2019-04-27T12:27:14.303Z,2.9
2019-04-27T12:28:44.254Z,2.7
2019-04-27T12:30:04.461Z,3
2019-04-27T12:31:14.663Z,3.3
2019-04-27T12:32:13.933Z,3.2
2019-04-27T12:33:34.135Z,2.5
2019-04-27T12:34:44.590Z,3.7
2019-04-27T12:36:04.944Z,2.5
2019-04-27T12:37:25.040Z,3.5
2019-04-27T12:38:34.781Z,3.7
2019-04-27T12:40:14.906Z,2.9
2019-04-27T12:41:54.308Z,3.3
2019-04-27T12:43:54.264Z,3.5
2019-04-27T12:45:34.943Z,3.4
2019-04-27T12:50:15.362Z,3.1
2019-04-27T12:51:54.093Z,3.9
2019-04-27T12:53:54.211Z,2.9
2019-04-27T12:56:54.096Z,4.3
2019-04-27T12:58:14.685Z,3.9
2019-04-27T12:59:34.622Z,3.5
2019-04-27T13:01:24.244Z,3.8
2019-04-27T13:03:14.273Z,4.2
2019-04-27T13:04:55.025Z,4
2019-04-27T13:06:45.166Z,3.9
2019-04-27T13:08:24.121Z,4.2
2019-04-27T13:09:34.255Z,4
2019-04-27T13:11:14.443Z,4.1
2019-04-27T13:12:44.314Z,4.7
2019-04-27T13:14:14.596Z,3.5
2019-04-27T13:15:33.932Z,3.9
2019-04-27T13:16:54.361Z,4.4
2019-04-27T13:18:03.874Z,4
2019-04-27T13:19:04.385Z,3.4
2019-04-27T13:19:54.365Z,4.1
2019-04-27T13:21:34.719Z,4.2
2019-04-27T13:22:44.158Z,4.4
2019-04-27T13:24:33.947Z,3.9
2019-04-27T13:25:44.403Z,3.8
2019-04-27T13:30:05.412Z,3.7
2019-04-27T13:30:54.189Z,4.4
2019-04-27T13:32:14.554Z,4.3
2019-04-27T13:33:34.701Z,3.6
2019-04-27T13:34:44.752Z,4.1
2019-04-27T13:37:34.670Z,3.9
2019-04-27T13:38:34.744Z,3.5
2019-04-27T13:41:44.477Z,3.8
2019-04-27T13:44:04.729Z,3.9
2019-04-27T13:44:43.927Z,3
2019-04-27T13:46:06.313Z,4.5
2019-04-27T13:46:44.265Z,3.4
2019-04-27T13:47:34.820Z,3.9
2019-04-27T13:48:34.640Z,2.9
2019-04-27T13:50:43.927Z,3.6
2019-04-27T13:52:14.404Z,3.4
2019-04-27T13:58:59.405Z,3.7
2019-04-27T13:59:40.017Z,3.8
2019-04-27T14:02:14.026Z,3.7
2019-04-27T14:02:42.413Z,3.6
2019-04-27T14:03:23.500Z,4.3
2019-04-27T14:04:12.214Z,4.5
2019-04-27T14:07:47.658Z,4.6
2019-04-27T14:08:27.482Z,3.5
2019-04-27T14:10:26.729Z,4.5
2019-04-27T14:12:26.586Z,5.2
2019-04-27T14:13:17.963Z,4.7
2019-04-27T14:14:27.152Z,4.9
2019-04-27T14:18:17.210Z,5.1
2019-04-27T14:19:17.003Z,5.1
2019-04-27T14:20:27.044Z,5.1
2019-04-27T14:23:16.836Z,5.3
2019-04-27T14:24:46.867Z,6
2019-04-27T14:26:06.826Z,5.6
2019-04-27T14:30:57.185Z,6.1
2019-04-27T14:33:06.611Z,6.5
2019-04-27T14:33:57.064Z,5.6
2019-04-27T14:34:57.380Z,6.2
2019-04-27T14:36:57.042Z,6.4
2019-04-27T14:37:48.199Z,5.6
2019-04-27T14:40:16.852Z,6.1
2019-04-27T14:40:57.401Z,5.1
2019-04-27T14:41:47.387Z,6.2
2019-04-27T14:44:47.103Z,5.6
2019-04-27T14:45:46.805Z,6.4
2019-04-27T14:46:36.770Z,7.1
2019-04-27T14:49:37.309Z,6.2
2019-04-27T14:51:46.818Z,6.6
2019-04-27T14:53:36.821Z,6.5
2019-04-27T14:55:47.130Z,6.3
2019-04-27T14:59:17.059Z,6.4
2019-04-27T15:00:56.635Z,6.1
2019-04-27T15:02:37.417Z,5.9
2019-04-27T15:04:40.119Z,6.2
2019-04-27T15:06:17.952Z,5.3
2019-04-27T15:07:12.122Z,5.4
2019-04-27T15:09:17.864Z,5.1
2019-04-27T15:09:54.298Z,5.5
2019-04-27T15:10:44.555Z,5.1
2019-04-27T15:12:14.020Z,5.7
2019-04-27T15:13:50.918Z,5.3
2019-04-27T15:15:19.645Z,5.8
2019-04-27T15:17:02.885Z,5.5
2019-04-27T15:17:47.647Z,5.1
2019-04-27T15:18:39.720Z,5
2019-04-27T15:20:29.050Z,5.7
2019-04-27T15:22:12.586Z,5.1
2019-04-27T15:25:06.191Z,4.6
2019-04-27T15:30:15.912Z,4.3
2019-04-27T15:30:57.816Z,4.7
2019-04-27T15:31:23.461Z,5
2019-04-27T15:31:46.460Z,4.9
2019-04-27T15:32:17.462Z,4.3
2019-04-27T15:35:19.397Z,4.6
2019-04-27T15:37:06.191Z,4.2
2019-04-27T15:39:16.607Z,4.5
2019-04-27T15:43:16.509Z,4
2019-04-27T15:44:07.496Z,4.4
2019-04-27T15:45:06.593Z,4.6
2019-04-27T15:46:16.652Z,5.7
2019-04-27T15:47:36.687Z,4.8
2019-04-27T15:48:36.745Z,4.5
2019-04-27T15:49:57.199Z,3.8
2019-04-27T15:51:14.361Z,2.7
2019-04-27T15:53:16.421Z,2.5
2019-04-27T15:54:36.226Z,2.2
2019-04-27T15:55:47.966Z,2.5
2019-04-27T15:57:10.428Z,2.6
2019-04-27T15:59:16.789Z,2.7
2019-04-27T16:02:27.094Z,2.6
2019-04-27T16:03:27.801Z,3.5
2019-04-27T16:04:56.541Z,2.8
2019-04-27T16:07:06.513Z,3.7
2019-04-27T16:08:26.838Z,4.1
2019-04-27T16:09:26.584Z,3.2
2019-04-27T16:10:37.207Z,4.1
2019-04-27T16:12:10.555Z,3.4
2019-04-27T16:13:16.324Z,3.4
2019-04-27T16:14:27.096Z,3.7
2019-04-27T16:15:36.382Z,3.8
2019-04-27T16:16:56.996Z,3.6
2019-04-27T16:18:06.945Z,3.9
2019-04-27T16:19:16.747Z,3.6
2019-04-27T16:21:39.701Z,3.6
2019-04-27T16:22:46.773Z,4.2
2019-04-27T16:23:46.421Z,4.3
2019-04-27T16:25:06.584Z,4.1
2019-04-27T16:26:16.617Z,3.9
2019-04-27T16:27:36.904Z,3.7
2019-04-27T16:29:06.561Z,3.8
2019-04-27T16:30:18.628Z,3.8
2019-04-27T16:32:56.542Z,4.3
2019-04-27T16:34:06.518Z,3.9
2019-04-27T16:35:19.275Z,4.2
2019-04-27T16:37:18.808Z,4.6
2019-04-27T16:38:16.729Z,4.6
2019-04-27T16:39:26.746Z,4
2019-04-27T16:40:59.561Z,4.1
2019-04-27T16:42:50.472Z,3.9
2019-04-27T16:43:36.811Z,4.2
2019-04-27T16:44:49.338Z,4.2
2019-04-27T16:46:26.496Z,3.2
2019-04-27T16:48:06.929Z,4.3
2019-04-27T16:49:16.981Z,4
2019-04-27T16:50:06.292Z,3.7
2019-04-27T16:51:16.440Z,3.5
2019-04-27T16:53:06.913Z,4.4
2019-04-27T16:54:10.995Z,4.7
2019-04-27T16:54:58.846Z,3.6
2019-04-27T16:55:36.882Z,4.3
2019-04-27T16:57:16.517Z,3.8
2019-04-27T17:00:46.288Z,4.2
2019-04-27T17:02:06.321Z,4.2
2019-04-27T17:04:36.833Z,4.1
2019-04-27T17:07:16.839Z,4.3
2019-04-27T17:08:22.051Z,4.3
2019-04-27T17:09:16.744Z,3.8
2019-04-27T17:10:07.434Z,4
2019-04-27T17:11:11.310Z,3.7
2019-04-27T17:12:06.796Z,3.6
2019-04-27T17:12:57.015Z,4.5
2019-04-27T17:14:47.156Z,3.5
2019-04-27T17:16:37.204Z,3.3
2019-04-27T17:17:36.919Z,4
2019-04-27T17:18:36.552Z,4.3
2019-04-27T17:20:36.518Z,3.7
2019-04-27T17:21:26.808Z,3.4
2019-04-27T17:22:37.143Z,3.5
2019-04-27T17:24:43.471Z,3.4
2019-04-27T17:26:27.494Z,3.6
2019-04-27T17:27:29.716Z,4.3
2019-04-27T17:29:09.596Z,4.2
2019-04-27T17:29:59.247Z,3.7
2019-04-27T17:31:06.751Z,3.9
2019-04-27T17:33:11.551Z,4.3
2019-04-27T17:34:06.288Z,4
2019-04-27T17:35:09.266Z,4.7
2019-04-27T17:37:29.837Z,4.9
2019-04-27T17:39:47.115Z,3.8
2019-04-27T17:41:09.305Z,5.3
2019-04-27T17:42:59.662Z,4.3
2019-04-27T17:43:46.350Z,4.7
2019-04-27T17:44:37.381Z,5.6
2019-04-27T17:45:30.334Z,5.2
2019-04-27T17:47:19.905Z,5
2019-04-27T17:49:06.695Z,5.6
2019-04-27T17:50:47.174Z,5.1
2019-04-27T17:52:57.302Z,5.2
2019-04-27T17:56:16.702Z,5.1
2019-04-27T17:57:16.273Z,5.3
2019-04-27T18:00:06.869Z,5.3
2019-04-27T18:01:06.613Z,4.5
2019-04-27T18:03:06.405Z,5.1
2019-04-27T18:04:16.728Z,5.2
2019-04-27T18:05:26.714Z,5.5
2019-04-27T18:07:46.979Z,4.7
2019-04-27T18:08:46.492Z,5.6
2019-04-27T18:09:56.743Z,5.9
2019-04-27T18:11:06.879Z,5.1
2019-04-27T18:11:56.560Z,5.1
2019-04-27T18:13:06.759Z,6
2019-04-27T18:14:17.461Z,5.4
2019-04-27T18:15:36.842Z,5.6
2019-04-27T18:17:40.868Z,6.2
2019-04-27T18:18:58.362Z,6
2019-04-27T18:20:16.797Z,6.4
2019-04-27T18:21:26.494Z,4.9
2019-04-27T18:22:37.803Z,5.6
2019-04-27T18:24:06.925Z,6.4
2019-04-27T18:25:07.339Z,5.7
2019-04-27T18:26:49.945Z,5.7
2019-04-27T18:28:07.857Z,5.2
2019-04-27T18:29:16.474Z,5
2019-04-27T18:32:59.095Z,5.8
2019-04-27T18:34:08.485Z,5.1
2019-04-27T18:35:06.333Z,5.5
2019-04-27T18:38:47.846Z,5.5
2019-04-27T18:39:50.780Z,5.2
2019-04-27T18:40:57.229Z,5.3
2019-04-27T18:41:56.731Z,5.5
2019-04-27T18:43:26.889Z,5.7
2019-04-27T18:44:17.096Z,5
2019-04-27T18:45:26.665Z,5.4
2019-04-27T18:46:26.523Z,5.4
2019-04-27T18:47:46.322Z,5
2019-04-27T18:48:56.729Z,6
2019-04-27T18:51:36.607Z,5.4
2019-04-27T18:52:48.146Z,5.6
2019-04-27T18:55:18.434Z,6.1
2019-04-27T18:59:16.884Z,5.4
2019-04-27T19:00:46.637Z,5.9
2019-04-27T19:03:07.591Z,6
2019-04-27T19:04:56.552Z,5.3
2019-04-27T19:05:56.493Z,5.4
2019-04-27T19:07:18.052Z,5.9
2019-04-27T19:08:36.747Z,5.7
2019-04-27T19:12:37.362Z,5.9
2019-04-27T19:13:57.273Z,6.1
2019-04-27T19:16:16.893Z,6.9
2019-04-27T19:17:36.760Z,6
2019-04-27T19:18:46.223Z,5.8
2019-04-27T19:20:26.888Z,6.1
2019-04-27T19:21:37.411Z,8.2
2019-04-27T19:22:47.013Z,6.2
2019-04-27T19:25:26.953Z,6.1
2019-04-27T19:29:57.068Z,5.9
2019-04-27T19:31:17.037Z,6.5
2019-04-27T19:34:26.754Z,5
2019-04-27T19:36:46.940Z,6.1
2019-04-27T19:37:57.224Z,5.7
2019-04-27T19:39:06.982Z,6.5
2019-04-27T19:40:06.876Z,6.1
2019-04-27T19:41:26.993Z,5.5
2019-04-27T19:43:26.567Z,5.7
2019-04-27T19:44:16.738Z,5.8
2019-04-27T19:45:46.374Z,6.7
2019-04-27T19:47:28.077Z,6.3
2019-04-27T19:48:16.353Z,5.9
2019-04-27T19:50:17.272Z,5.9
2019-04-27T19:51:26.447Z,6.7
2019-04-27T19:51:57.030Z,5.9
2019-04-27T19:53:07.902Z,5.7
2019-04-27T19:56:48.179Z,5.9
2019-04-27T19:57:07.236Z,5.6
2019-04-27T19:59:36.178Z,6.8
2019-04-27T20:00:27.864Z,5.9
2019-04-27T20:00:46.536Z,6.3
2019-04-27T20:01:12.395Z,6.4
2019-04-27T20:02:27.046Z,6.4
2019-04-27T20:03:17.287Z,5.9
2019-04-27T20:07:16.349Z,5.8
2019-04-27T20:08:47.222Z,5.7
2019-04-27T20:10:06.941Z,5.9
2019-04-27T20:12:03.360Z,5.6
2019-04-27T20:12:29.401Z,6.2
2019-04-27T20:14:09.163Z,5.6
2019-04-27T20:15:59.181Z,5.3
2019-04-27T20:17:39.141Z,5.1
2019-04-27T20:18:59.739Z,5.9
2019-04-27T20:21:29.118Z,4.8
2019-04-27T20:23:39.108Z,4.9
2019-04-27T20:24:49.471Z,5
2019-04-27T20:27:19.209Z,5.7
2019-04-27T20:28:39.552Z,4.8
2019-04-27T20:30:19.333Z,5.3
2019-04-27T20:31:49.411Z,4.8
2019-04-27T20:32:59.256Z,4.8
2019-04-27T20:34:39.415Z,5.1
2019-04-27T20:35:59.336Z,6.2
2019-04-27T20:37:10.062Z,5.4
2019-04-27T20:38:29.927Z,5.1
2019-04-27T20:39:59.790Z,6.3
2019-04-27T20:41:09.816Z,4.8
2019-04-27T20:42:29.677Z,6.3
2019-04-27T20:43:29.945Z,5.7
2019-04-27T20:44:29.405Z,5.5
2019-04-27T20:45:49.831Z,5.7
2019-04-27T20:50:49.496Z,6
2019-04-27T20:54:49.678Z,6.6
2019-04-27T20:57:09.625Z,7
2019-04-27T20:58:29.371Z,6.2
2019-04-27T21:00:20.000Z,7.1
2019-04-27T21:03:49.288Z,7.1
2019-04-27T21:05:29.186Z,6.2
2019-04-27T21:06:59.380Z,6.7
2019-04-27T21:08:09.903Z,7
2019-04-27T21:09:09.257Z,7.5
2019-04-27T21:10:49.694Z,7.5
2019-04-27T21:13:59.269Z,7.2
2019-04-27T21:15:29.651Z,8
2019-04-27T21:16:29.591Z,6.2
2019-04-27T21:21:49.142Z,7.3
2019-04-27T21:23:10.116Z,8.1
2019-04-27T21:25:40.102Z,7.2
2019-04-27T21:26:30.436Z,8.8
2019-04-27T21:27:30.122Z,8
2019-04-27T21:28:59.731Z,8.4
2019-04-27T21:30:00.421Z,8.1
2019-04-27T21:31:29.720Z,7.8
2019-04-27T21:33:09.597Z,8
2019-04-27T21:34:39.384Z,8.3
2019-04-27T21:35:59.567Z,8.6
2019-04-27T21:38:59.650Z,8.4
2019-04-27T21:41:39.594Z,8
2019-04-27T21:43:49.488Z,8.5
2019-04-27T21:45:09.461Z,9
2019-04-27T21:46:29.572Z,9.2
2019-04-27T21:49:29.649Z,9.8
2019-04-27T21:51:49.272Z,9
2019-04-27T21:53:19.424Z,9.2
2019-04-27T21:54:49.503Z,10.5
2019-04-27T21:55:59.224Z,9.4
2019-04-27T21:57:29.466Z,10.3
2019-04-27T22:00:09.167Z,9.9
2019-04-27T22:01:29.938Z,10.8
2019-04-27T22:02:39.419Z,9.4
2019-04-27T22:04:09.665Z,10.5
2019-04-27T22:05:29.543Z,9.5
2019-04-27T22:06:49.373Z,9.7